createdAt,value
2022-10-05T00:00:30.166Z,1.60
2022-10-05T00:02:58.124Z,1.80
2022-10-05T00:05:30.197Z,1.77
2022-10-05T00:08:02.626Z,1.65
2022-10-05T00:10:30.445Z,1.70
2022-10-05T00:12:58.155Z,1.80
2022-10-05T00:15:25.897Z,1.35
2022-10-05T00:17:58.102Z,1.73
2022-10-05T00:20:27.490Z,1.52
2022-10-05T00:22:58.249Z,1.67
2022-10-05T00:25:26.400Z,1.13
2022-10-05T00:27:56.884Z,1.23
2022-10-05T00:30:26.547Z,1.35
2022-10-05T00:32:59.429Z,1.13
2022-10-05T00:35:29.351Z,1.30
2022-10-05T00:37:57.411Z,1.13
2022-10-05T00:40:42.054Z,1.20
2022-10-05T00:43:33.303Z,1.10
2022-10-05T00:46:08.650Z,1.10
2022-10-05T00:48:46.268Z,1.40
2022-10-05T00:51:25.471Z,1.20
2022-10-05T00:54:04.824Z,1.10
2022-10-05T00:56:49.804Z,1.10
2022-10-05T00:59:29.730Z,1.20
2022-10-05T01:02:03.236Z,1.40
2022-10-05T01:04:39.213Z,1.10
2022-10-05T01:07:16.913Z,1.20
2022-10-05T01:09:53.690Z,1.20
2022-10-05T01:12:30.115Z,1.15
2022-10-05T01:15:06.291Z,1.10
2022-10-05T01:17:41.740Z,1.10
2022-10-05T01:20:33.305Z,1.45
2022-10-05T01:23:31.380Z,1.42
2022-10-05T01:26:14.665Z,1.65
2022-10-05T01:28:50.099Z,2.15
2022-10-05T01:31:26.746Z,1.77
2022-10-05T01:34:04.252Z,1.77
2022-10-05T01:36:43.558Z,1.40
2022-10-05T01:39:18.458Z,1.65
2022-10-05T01:41:53.235Z,1.17
2022-10-05T01:44:27.558Z,0.90
2022-10-05T01:47:03.162Z,1.23
2022-10-05T01:49:38.571Z,1.35
2022-10-05T01:52:28.289Z,1.17
2022-10-05T01:55:11.818Z,1.17
2022-10-05T01:57:54.337Z,1.23
2022-10-05T02:00:23.591Z,1.10
2022-10-05T02:02:57.864Z,1.10
2022-10-05T02:05:30.101Z,1.15
2022-10-05T02:08:01.528Z,0.90
2022-10-05T02:10:33.752Z,1.50
2022-10-05T02:13:05.901Z,1.02
2022-10-05T02:15:42.546Z,1.30
2022-10-05T02:18:15.179Z,1.15
2022-10-05T02:20:44.777Z,1.20
2022-10-05T02:23:17.472Z,1.10
2022-10-05T02:25:48.544Z,1.20
2022-10-05T02:28:23.561Z,1.30
2022-10-05T02:30:57.842Z,0.90
2022-10-05T02:33:29.393Z,1.20
2022-10-05T02:36:02.692Z,1.13
2022-10-05T02:38:40.884Z,1.00
2022-10-05T02:41:17.702Z,1.00
2022-10-05T02:43:53.766Z,1.15
2022-10-05T02:46:34.713Z,1.00
2022-10-05T02:49:12.659Z,1.10
2022-10-05T02:51:48.294Z,0.95
2022-10-05T02:54:26.357Z,1.00
2022-10-05T02:57:00.487Z,0.90
2022-10-05T02:59:36.297Z,1.38
2022-10-05T03:02:15.551Z,1.00
2022-10-05T03:04:55.763Z,0.80
2022-10-05T03:07:28.641Z,1.02
2022-10-05T03:10:05.209Z,0.73
2022-10-05T03:12:52.910Z,0.82
2022-10-05T03:15:45.058Z,0.90
2022-10-05T03:18:28.558Z,0.80
2022-10-05T03:21:10.247Z,0.73
2022-10-05T03:23:47.577Z,0.90
2022-10-05T03:26:30.144Z,1.20
2022-10-05T03:29:03.406Z,0.80
2022-10-05T03:31:37.825Z,0.60
2022-10-05T03:34:11.765Z,1.13
2022-10-05T03:36:46.692Z,1.10
2022-10-05T03:39:22.349Z,0.90
2022-10-05T03:41:59.992Z,1.10
2022-10-05T03:44:37.620Z,0.95
2022-10-05T03:47:13.412Z,1.10
2022-10-05T03:49:57.492Z,1.00
2022-10-05T03:52:32.364Z,1.00
2022-10-05T03:55:06.034Z,0.90
2022-10-05T03:57:37.329Z,1.08
2022-10-05T04:00:07.971Z,0.90
2022-10-05T04:03:01.458Z,1.10
2022-10-05T04:05:34.036Z,1.00
2022-10-05T04:08:06.639Z,1.00
2022-10-05T04:10:40.772Z,1.20
2022-10-05T04:13:15.164Z,1.20
2022-10-05T04:15:49.082Z,1.10
2022-10-05T04:18:24.757Z,1.40
2022-10-05T04:20:57.153Z,1.10
2022-10-05T04:23:34.365Z,1.42
2022-10-05T04:26:07.510Z,1.02
2022-10-05T04:28:46.067Z,1.25
2022-10-05T04:31:23.514Z,1.20
2022-10-05T04:34:03.369Z,1.10
2022-10-05T04:36:38.303Z,1.33
2022-10-05T04:39:13.808Z,1.02
2022-10-05T04:41:54.219Z,1.10
2022-10-05T04:44:43.323Z,1.02
2022-10-05T04:47:35.653Z,1.10
2022-10-05T04:50:20.553Z,1.05
2022-10-05T04:53:11.140Z,0.90
2022-10-05T04:55:44.035Z,1.10
2022-10-05T04:58:24.945Z,1.40
2022-10-05T05:01:07.260Z,1.33
2022-10-05T05:03:49.428Z,1.30
2022-10-05T05:06:30.817Z,1.13
2022-10-05T05:09:15.242Z,1.17
2022-10-05T05:12:08.417Z,1.27
2022-10-05T05:15:13.086Z,1.20
2022-10-05T05:18:07.656Z,1.10
2022-10-05T05:20:51.535Z,1.40
2022-10-05T05:23:28.162Z,1.17
2022-10-05T05:26:07.714Z,1.38
2022-10-05T05:28:44.126Z,1.20
2022-10-05T05:31:21.171Z,1.38
2022-10-05T05:33:59.737Z,1.50
2022-10-05T05:36:50.862Z,1.27
2022-10-05T05:39:25.253Z,1.30
2022-10-05T05:42:10.758Z,1.20
2022-10-05T05:44:44.756Z,1.33
2022-10-05T05:47:20.706Z,1.38
2022-10-05T05:50:07.991Z,1.10
2022-10-05T05:52:42.097Z,1.35
2022-10-05T05:55:19.151Z,1.20
2022-10-05T05:57:55.242Z,1.20
2022-10-05T06:00:25.696Z,1.30
2022-10-05T06:03:07.967Z,1.30
2022-10-05T06:05:42.350Z,1.55
2022-10-05T06:08:16.773Z,1.37
2022-10-05T06:10:53.262Z,1.15
2022-10-05T06:13:27.778Z,1.23
2022-10-05T06:16:00.829Z,1.30
2022-10-05T06:18:32.936Z,1.05
2022-10-05T06:21:04.493Z,1.20
2022-10-05T06:23:40.973Z,0.98
2022-10-05T06:26:15.739Z,1.23
2022-10-05T06:28:52.440Z,1.05
2022-10-05T06:31:31.934Z,1.10
2022-10-05T06:34:17.118Z,1.20
2022-10-05T06:36:49.790Z,1.30
2022-10-05T06:39:32.912Z,1.10
2022-10-05T06:42:38.176Z,1.15
2022-10-05T06:45:45.914Z,0.93
2022-10-05T06:48:45.572Z,1.00
2022-10-05T06:51:35.379Z,1.48
2022-10-05T06:54:37.099Z,1.30
2022-10-05T06:57:13.510Z,1.27
2022-10-05T06:59:51.019Z,1.25
2022-10-05T07:02:30.427Z,1.13
2022-10-05T07:05:32.743Z,0.98
2022-10-05T07:08:03.870Z,0.95
2022-10-05T07:10:38.100Z,0.90
2022-10-05T07:13:25.529Z,0.88
2022-10-05T07:16:00.145Z,1.00
2022-10-05T07:18:45.453Z,1.00
2022-10-05T07:21:21.000Z,1.42
2022-10-05T07:23:55.073Z,1.33
2022-10-05T07:26:30.550Z,1.20
2022-10-05T07:29:17.969Z,0.80
2022-10-05T07:31:51.993Z,1.00
2022-10-05T07:34:32.047Z,1.08
2022-10-05T07:37:22.315Z,0.98
2022-10-05T07:40:01.824Z,1.00
2022-10-05T07:42:50.732Z,1.83
2022-10-05T07:45:29.160Z,0.90
2022-10-05T07:48:00.338Z,0.90
2022-10-05T07:50:36.780Z,1.23
2022-10-05T07:53:07.872Z,1.10
2022-10-05T07:55:41.398Z,1.10
2022-10-05T07:58:19.285Z,1.00
2022-10-05T08:00:58.748Z,1.00
2022-10-05T08:03:38.145Z,1.00
2022-10-05T08:06:12.129Z,1.10
2022-10-05T08:08:49.054Z,0.93
2022-10-05T08:11:22.172Z,1.50
2022-10-05T08:13:55.644Z,1.05
2022-10-05T08:16:28.277Z,1.25
2022-10-05T08:19:00.539Z,1.33
2022-10-05T08:21:34.929Z,0.93
2022-10-05T08:24:13.094Z,1.20
2022-10-05T08:26:50.171Z,1.20
2022-10-05T08:29:25.033Z,2.20
2022-10-05T08:31:58.021Z,1.42
2022-10-05T08:34:31.259Z,1.10
2022-10-05T08:37:05.107Z,1.20
2022-10-05T08:39:38.277Z,1.40
2022-10-05T08:42:32.068Z,1.08
2022-10-05T08:45:44.463Z,1.27
2022-10-05T08:48:44.569Z,1.43
2022-10-05T08:51:33.565Z,2.13
2022-10-05T08:54:27.170Z,1.50
2022-10-05T08:57:15.308Z,1.23
2022-10-05T09:00:05.207Z,1.50
2022-10-05T09:02:46.771Z,1.37
2022-10-05T09:05:38.340Z,1.20
2022-10-05T09:08:32.082Z,2.08
2022-10-05T09:11:05.594Z,1.30
2022-10-05T09:14:07.139Z,1.40
2022-10-05T09:16:52.356Z,1.30
2022-10-05T09:19:50.358Z,1.33
2022-10-05T09:22:27.609Z,1.38
2022-10-05T09:25:04.526Z,1.20
2022-10-05T09:27:38.157Z,1.55
2022-10-05T09:30:26.871Z,1.30
2022-10-05T09:33:31.982Z,1.40
2022-10-05T09:36:50.202Z,1.48
2022-10-05T09:39:35.330Z,1.30
2022-10-05T09:42:47.709Z,1.60
2022-10-05T09:45:36.946Z,1.63
2022-10-05T09:48:43.030Z,1.45
2022-10-05T09:51:45.372Z,1.80
2022-10-05T09:54:43.998Z,1.88
2022-10-05T09:57:42.252Z,1.15
2022-10-05T10:00:21.582Z,1.10
2022-10-05T10:03:14.837Z,1.33
2022-10-05T10:06:15.482Z,1.45
2022-10-05T10:08:53.732Z,1.48
2022-10-05T10:11:38.376Z,1.10
2022-10-05T10:14:33.916Z,1.37
2022-10-05T10:17:14.039Z,1.80
2022-10-05T10:20:13.232Z,1.10
2022-10-05T10:23:03.972Z,1.27
2022-10-05T10:25:54.582Z,1.10
2022-10-05T10:28:53.437Z,1.33
2022-10-05T10:31:46.809Z,1.00
2022-10-05T10:34:41.256Z,1.10
2022-10-05T10:37:34.593Z,1.35
2022-10-05T10:40:25.967Z,1.35
2022-10-05T10:43:27.552Z,0.90
2022-10-05T10:46:03.097Z,1.00
2022-10-05T10:48:53.834Z,1.00
2022-10-05T10:51:41.059Z,0.88
2022-10-05T10:54:27.356Z,0.90
2022-10-05T10:57:03.073Z,1.17
2022-10-05T10:59:49.650Z,1.20
2022-10-05T11:02:53.751Z,0.98
2022-10-05T11:05:32.672Z,0.90
2022-10-05T11:08:27.595Z,1.15
2022-10-05T11:11:26.926Z,1.00
2022-10-05T11:14:34.566Z,0.90
2022-10-05T11:17:33.342Z,1.50
2022-10-05T11:20:26.263Z,0.80
2022-10-05T11:23:14.200Z,1.00
2022-10-05T11:25:55.894Z,0.90
2022-10-05T11:29:02.765Z,0.77
2022-10-05T11:32:07.476Z,0.95
2022-10-05T11:34:53.064Z,1.15
2022-10-05T11:37:59.632Z,0.98
2022-10-05T11:40:50.996Z,0.87
2022-10-05T11:43:38.838Z,1.10
2022-10-05T11:46:14.631Z,0.90
2022-10-05T11:48:55.440Z,0.80
2022-10-05T11:51:45.183Z,1.00
2022-10-05T11:54:35.153Z,1.00
2022-10-05T11:57:18.890Z,1.50
2022-10-05T11:59:53.043Z,1.25
2022-10-05T12:03:03.622Z,0.90
2022-10-05T12:05:39.233Z,0.90
2022-10-05T12:08:20.373Z,1.20
2022-10-05T12:11:00.095Z,1.10
2022-10-05T12:13:36.533Z,1.20
2022-10-05T12:16:08.794Z,1.23
2022-10-05T12:18:57.453Z,1.20
2022-10-05T12:21:33.603Z,1.00
2022-10-05T12:24:04.985Z,1.20
2022-10-05T12:26:37.530Z,1.30
2022-10-05T12:29:13.348Z,1.38
2022-10-05T12:31:50.538Z,1.10
2022-10-05T12:34:29.842Z,1.20
2022-10-05T12:37:05.681Z,1.10
2022-10-05T12:39:41.756Z,1.10
2022-10-05T12:42:20.018Z,1.30
2022-10-05T12:45:10.962Z,1.30
2022-10-05T12:47:54.071Z,1.33
2022-10-05T12:50:28.566Z,1.20
2022-10-05T12:53:05.491Z,1.30
2022-10-05T12:55:41.189Z,1.40
2022-10-05T12:58:21.832Z,1.30
2022-10-05T13:00:57.276Z,1.63
2022-10-05T13:03:28.970Z,1.27
2022-10-05T13:06:10.148Z,1.25
2022-10-05T13:08:48.621Z,1.20
2022-10-05T13:11:21.831Z,1.10
2022-10-05T13:13:57.018Z,1.50
2022-10-05T13:16:32.638Z,1.30
2022-10-05T13:19:10.477Z,1.10
2022-10-05T13:22:03.223Z,1.35
2022-10-05T13:24:35.641Z,1.25
2022-10-05T13:27:11.248Z,1.40
2022-10-05T13:29:43.377Z,1.75
2022-10-05T13:32:16.176Z,1.45
2022-10-05T13:34:51.014Z,1.27
2022-10-05T13:37:27.704Z,1.30
2022-10-05T13:40:07.427Z,1.00
2022-10-05T13:42:41.420Z,1.10
2022-10-05T13:45:15.037Z,1.40
2022-10-05T13:47:56.267Z,1.30
2022-10-05T13:50:31.151Z,1.60
2022-10-05T13:53:13.200Z,1.40
2022-10-05T13:55:46.683Z,1.15
2022-10-05T13:58:27.626Z,1.40
2022-10-05T14:00:57.932Z,1.35
2022-10-05T14:03:28.450Z,1.30
2022-10-05T14:05:58.742Z,1.27
2022-10-05T14:08:30.499Z,1.30
2022-10-05T14:10:58.303Z,1.00
2022-10-05T14:13:30.205Z,1.02
2022-10-05T14:16:19.097Z,1.27
2022-10-05T14:18:56.369Z,1.10
2022-10-05T14:21:25.981Z,1.20
2022-10-05T14:23:57.159Z,1.33
2022-10-05T14:26:36.609Z,1.70
2022-10-05T14:29:17.746Z,1.50
2022-10-05T14:31:50.523Z,1.10
2022-10-05T14:34:27.904Z,1.25
2022-10-05T14:37:01.243Z,1.42
2022-10-05T14:39:34.665Z,1.05
2022-10-05T14:42:15.103Z,1.30
2022-10-05T14:44:43.005Z,1.30
2022-10-05T14:47:19.574Z,1.38
2022-10-05T14:50:10.673Z,1.42
2022-10-05T14:52:41.245Z,1.10
2022-10-05T14:55:24.987Z,1.48
2022-10-05T14:58:04.048Z,1.20
2022-10-05T15:00:38.249Z,1.17
2022-10-05T15:03:19.592Z,1.45
2022-10-05T15:05:51.877Z,1.25
2022-10-05T15:08:31.210Z,1.63
2022-10-05T15:11:07.468Z,1.40
2022-10-05T15:13:38.967Z,1.30
2022-10-05T15:16:15.614Z,1.27
2022-10-05T15:18:48.776Z,1.30
2022-10-05T15:21:33.393Z,1.48
2022-10-05T15:24:04.233Z,1.30
2022-10-05T15:26:46.383Z,1.20
2022-10-05T15:29:29.417Z,1.92
2022-10-05T15:32:03.189Z,1.80
2022-10-05T15:34:40.493Z,1.40
2022-10-05T15:37:16.862Z,1.77
2022-10-05T15:39:52.182Z,1.50
2022-10-05T15:42:26.957Z,1.50
2022-10-05T15:45:06.468Z,1.50
2022-10-05T15:47:46.829Z,1.90
2022-10-05T15:50:22.778Z,1.53
2022-10-05T15:52:57.190Z,1.50
2022-10-05T15:55:35.115Z,1.45
2022-10-05T15:58:32.953Z,1.20
2022-10-05T16:01:07.987Z,1.50
2022-10-05T16:03:46.758Z,1.30
2022-10-05T16:06:49.467Z,1.20
2022-10-05T16:09:39.140Z,1.48
2022-10-05T16:12:19.011Z,2.00
2022-10-05T16:14:56.487Z,1.50
2022-10-05T16:17:37.896Z,1.67
2022-10-05T16:20:19.410Z,1.30
2022-10-05T16:22:59.312Z,1.58
2022-10-05T16:25:35.097Z,1.35
2022-10-05T16:28:18.783Z,1.70
2022-10-05T16:30:58.727Z,1.50
2022-10-05T16:33:37.207Z,1.60
2022-10-05T16:36:16.140Z,1.50
2022-10-05T16:38:55.752Z,1.40
2022-10-05T16:41:29.576Z,1.98
2022-10-05T16:44:05.049Z,1.70
2022-10-05T16:46:41.145Z,2.15
2022-10-05T16:49:20.562Z,1.83
2022-10-05T16:51:57.607Z,2.17
2022-10-05T16:54:29.313Z,2.25
2022-10-05T16:57:00.369Z,1.60
2022-10-05T16:59:48.820Z,1.63
2022-10-05T17:02:33.325Z,1.85
2022-10-05T17:05:13.575Z,2.15
2022-10-05T17:07:56.727Z,1.90
2022-10-05T17:10:56.516Z,2.30
2022-10-05T17:13:43.385Z,2.28
2022-10-05T17:16:21.129Z,1.60
2022-10-05T17:19:32.129Z,1.60
2022-10-05T17:22:01.935Z,2.30
2022-10-05T17:24:41.452Z,2.53
2022-10-05T17:27:25.908Z,1.70
2022-10-05T17:29:55.437Z,1.92
2022-10-05T17:32:56.196Z,1.90
2022-10-05T17:35:50.670Z,2.00
2022-10-05T17:38:21.683Z,1.73
2022-10-05T17:41:17.689Z,2.08
2022-10-05T17:44:19.235Z,1.60
2022-10-05T17:46:49.032Z,1.85
2022-10-05T17:49:41.766Z,2.05
2022-10-05T17:52:43.377Z,1.80
2022-10-05T17:55:30.046Z,2.42
2022-10-05T17:58:00.452Z,2.50
2022-10-05T18:00:34.612Z,2.58
2022-10-05T18:03:39.220Z,2.00
2022-10-05T18:06:37.293Z,2.00
2022-10-05T18:09:32.950Z,3.03
2022-10-05T18:12:39.526Z,2.42
2022-10-05T18:15:41.486Z,3.05
2022-10-05T18:18:35.854Z,3.03
2022-10-05T18:21:27.985Z,3.23
2022-10-05T18:24:04.936Z,2.33
2022-10-05T18:26:41.324Z,1.52
2022-10-05T18:29:38.371Z,1.05
2022-10-05T18:32:17.590Z,1.02
2022-10-05T18:34:53.193Z,0.87
2022-10-05T18:37:32.682Z,0.82
2022-10-05T18:40:25.489Z,0.80
2022-10-05T18:43:01.184Z,1.25
2022-10-05T18:45:37.868Z,1.15
2022-10-05T18:48:19.648Z,1.30
2022-10-05T18:50:55.965Z,1.10
2022-10-05T18:53:31.525Z,1.15
2022-10-05T18:56:04.545Z,0.82
2022-10-05T18:58:42.777Z,1.15
2022-10-05T19:01:30.779Z,1.60
2022-10-05T19:04:10.084Z,0.80
2022-10-05T19:06:50.187Z,0.98
2022-10-05T19:09:32.242Z,0.88
2022-10-05T19:12:07.721Z,1.23
2022-10-05T19:14:45.266Z,1.17
2022-10-05T19:17:25.339Z,0.90
2022-10-05T19:20:03.852Z,1.00
2022-10-05T19:22:44.088Z,1.00
2022-10-05T19:25:26.637Z,0.98
2022-10-05T19:28:05.257Z,0.90
2022-10-05T19:30:51.810Z,0.82
2022-10-05T19:33:32.291Z,1.30
2022-10-05T19:36:13.497Z,1.10
2022-10-05T19:38:52.350Z,0.88
2022-10-05T19:41:27.340Z,1.10
2022-10-05T19:44:12.612Z,0.90
2022-10-05T19:46:54.954Z,1.27
2022-10-05T19:49:48.410Z,0.75
2022-10-05T19:52:22.737Z,0.95
2022-10-05T19:55:05.243Z,1.57
2022-10-05T19:57:32.978Z,1.10
2022-10-05T20:00:00.846Z,1.23
2022-10-05T20:02:32.499Z,1.10
2022-10-05T20:05:07.912Z,0.90
2022-10-05T20:07:36.912Z,1.20
2022-10-05T20:10:29.242Z,1.02
2022-10-05T20:12:59.048Z,0.98
2022-10-05T20:15:46.064Z,1.02
2022-10-05T20:18:57.220Z,0.90
2022-10-05T20:21:47.214Z,0.80
2022-10-05T20:24:16.676Z,0.90
2022-10-05T20:27:04.314Z,0.90
2022-10-05T20:29:36.705Z,0.80
2022-10-05T20:32:08.184Z,0.90
2022-10-05T20:34:41.240Z,1.10
2022-10-05T20:37:09.098Z,0.70
2022-10-05T20:39:36.783Z,1.10
2022-10-05T20:42:05.051Z,0.90
2022-10-05T20:44:32.859Z,0.63
2022-10-05T20:47:01.453Z,0.50
2022-10-05T20:49:30.980Z,0.95
2022-10-05T20:52:00.591Z,0.60
2022-10-05T20:54:28.832Z,0.77
2022-10-05T20:56:56.997Z,0.75
2022-10-05T20:59:25.994Z,0.77
2022-10-05T21:01:53.674Z,0.80
2022-10-05T21:04:23.186Z,1.00
2022-10-05T21:06:51.720Z,0.80
2022-10-05T21:09:21.503Z,0.80
2022-10-05T21:11:52.744Z,0.80
2022-10-05T21:14:20.398Z,0.50
2022-10-05T21:16:48.148Z,0.85
2022-10-05T21:19:16.289Z,0.90
2022-10-05T21:21:45.833Z,0.90
2022-10-05T21:24:15.224Z,0.60
2022-10-05T21:26:44.933Z,0.90
2022-10-05T21:29:13.404Z,0.70
2022-10-05T21:31:41.778Z,0.65
2022-10-05T21:34:09.871Z,0.70
2022-10-05T21:36:37.567Z,0.87
2022-10-05T21:39:05.405Z,0.63
2022-10-05T21:41:33.154Z,0.60
2022-10-05T21:44:02.144Z,0.90
2022-10-05T21:46:30.285Z,0.80
2022-10-05T21:48:58.140Z,0.90
2022-10-05T21:51:27.619Z,1.15
2022-10-05T21:53:58.973Z,1.00
2022-10-05T21:56:32.118Z,0.93
2022-10-05T21:59:00.524Z,1.02
2022-10-05T22:01:29.687Z,0.70
2022-10-05T22:03:57.684Z,0.90
2022-10-05T22:06:25.418Z,1.00
2022-10-05T22:08:53.087Z,1.00
2022-10-05T22:11:20.745Z,1.00
2022-10-05T22:13:50.765Z,1.13
2022-10-05T22:16:21.137Z,1.17
2022-10-05T22:18:51.662Z,1.30
2022-10-05T22:21:21.006Z,0.90
2022-10-05T22:23:48.898Z,1.02
2022-10-05T22:26:19.165Z,1.03
2022-10-05T22:28:48.387Z,1.02
2022-10-05T22:31:16.907Z,1.55
2022-10-05T22:33:44.690Z,1.10
2022-10-05T22:36:13.816Z,1.17
2022-10-05T22:38:41.560Z,0.97
2022-10-05T22:41:11.679Z,1.40
2022-10-05T22:43:39.474Z,0.80
2022-10-05T22:46:11.644Z,0.85
2022-10-05T22:48:39.677Z,1.10
2022-10-05T22:51:08.180Z,1.17
2022-10-05T22:53:37.184Z,0.90
2022-10-05T22:56:06.275Z,1.63
2022-10-05T22:58:34.009Z,1.17
2022-10-05T23:01:03.939Z,1.25
2022-10-05T23:03:32.495Z,1.27
2022-10-05T23:06:03.091Z,0.82
2022-10-05T23:08:31.224Z,1.58
2022-10-05T23:11:04.599Z,0.90
2022-10-05T23:13:33.318Z,1.05
2022-10-05T23:16:07.017Z,1.10
2022-10-05T23:18:35.241Z,1.23
2022-10-05T23:21:03.315Z,0.80
2022-10-05T23:23:30.974Z,1.00
2022-10-05T23:26:03.604Z,1.13
2022-10-05T23:28:31.895Z,1.00
2022-10-05T23:31:00.946Z,1.17
2022-10-05T23:33:28.917Z,0.93
2022-10-05T23:36:00.171Z,0.95
2022-10-05T23:38:28.418Z,1.05
2022-10-05T23:40:57.123Z,0.80
2022-10-05T23:43:26.640Z,1.17
2022-10-05T23:45:54.444Z,0.80
2022-10-05T23:48:22.256Z,1.00
2022-10-05T23:50:50.718Z,0.98
2022-10-05T23:53:19.452Z,1.27
2022-10-05T23:55:50.344Z,0.82
2022-10-05T23:58:18.756Z,0.80
